createdAt,value
2018-06-16T04:18:42.856Z,16.11
2018-06-16T04:23:46.262Z,16.27
2018-06-16T04:28:49.619Z,16.37
2018-06-16T04:33:52.982Z,16.53
2018-06-16T04:38:56.298Z,16.69
2018-06-16T04:43:59.631Z,16.80
2018-06-16T04:49:03.735Z,16.87
2018-06-16T04:54:07.096Z,16.83
2018-06-16T04:59:10.435Z,17.01
2018-06-16T05:04:13.763Z,17.24
2018-06-16T05:09:17.080Z,17.41
2018-06-16T05:14:20.406Z,17.53
2018-06-16T05:19:23.735Z,17.69
2018-06-16T05:24:27.815Z,17.83
2018-06-16T05:29:31.151Z,17.93
2018-06-16T05:34:34.494Z,18.03
2018-06-16T05:39:39.527Z,18.17
2018-06-16T05:44:42.863Z,18.28
2018-06-16T05:49:46.960Z,18.38
2018-06-16T05:54:50.287Z,18.55
2018-06-16T05:59:53.627Z,18.71
2018-06-16T06:04:57.718Z,18.86
2018-06-16T06:10:01.046Z,19.01
2018-06-16T06:15:04.379Z,19.12
2018-06-16T06:20:08.476Z,19.19
2018-06-16T06:25:11.811Z,19.32
2018-06-16T06:30:15.923Z,19.44
2018-06-16T06:35:19.258Z,19.63
2018-06-16T06:40:23.359Z,19.70
2018-06-16T06:45:26.685Z,19.82
2018-06-16T06:50:30.032Z,19.97
2018-06-16T06:55:33.362Z,20.12
2018-06-16T07:00:36.695Z,20.24
2018-06-16T07:05:40.028Z,20.31
2018-06-16T07:10:43.435Z,20.38
2018-06-16T07:15:47.186Z,20.51
2018-06-16T07:20:50.517Z,20.64
2018-06-16T07:25:54.780Z,20.74
2018-06-16T07:30:58.219Z,20.86
2018-06-16T07:36:01.550Z,20.95
2018-06-16T07:41:04.890Z,21.09
2018-06-16T07:46:08.212Z,21.18
2018-06-16T07:51:11.563Z,21.21
2018-06-16T07:56:14.925Z,21.35
2018-06-16T08:01:18.252Z,21.47
2018-06-16T08:06:21.589Z,21.62
2018-06-16T08:11:24.923Z,21.67
2018-06-16T08:16:28.254Z,21.73
2018-06-16T08:21:31.594Z,21.78
2018-06-16T08:26:35.683Z,21.96
2018-06-16T08:31:39.024Z,22.05
2018-06-16T08:36:42.392Z,22.02
2018-06-16T08:41:45.719Z,21.87
2018-06-16T08:46:49.055Z,21.94
2018-06-16T08:51:52.394Z,22.04
2018-06-16T08:56:56.495Z,22.24
2018-06-16T09:01:59.822Z,22.39
2018-06-16T09:07:03.923Z,22.49
2018-06-16T09:12:07.256Z,22.68
2018-06-16T09:17:10.593Z,22.69
2018-06-16T09:22:14.682Z,22.71
2018-06-16T09:27:18.014Z,22.57
2018-06-16T09:32:21.342Z,22.56
2018-06-16T09:37:25.445Z,22.54
2018-06-16T09:42:28.818Z,22.67
2018-06-16T09:47:32.166Z,22.66
2018-06-16T09:52:35.505Z,22.84
2018-06-16T09:57:39.607Z,22.94
2018-06-16T10:02:42.935Z,23.10
2018-06-16T10:07:46.267Z,23.31
2018-06-16T10:12:49.595Z,23.40
2018-06-16T10:17:52.936Z,23.24
2018-06-16T10:22:56.302Z,23.40
2018-06-16T10:27:59.656Z,23.60
2018-06-16T10:33:03.009Z,23.82
2018-06-16T10:38:06.618Z,24.04
2018-06-16T10:43:10.103Z,23.91
2018-06-16T10:48:13.455Z,23.97
2018-06-16T10:53:16.782Z,23.91
2018-06-16T10:58:20.216Z,23.81
2018-06-16T11:03:23.718Z,23.73
2018-06-16T11:08:27.047Z,23.75
2018-06-16T11:13:30.374Z,23.82
2018-06-16T11:18:33.710Z,23.94
2018-06-16T11:23:37.059Z,23.97
2018-06-16T11:28:41.168Z,24.24
2018-06-16T11:33:44.498Z,24.17
2018-06-16T11:38:47.831Z,24.52
2018-06-16T11:43:51.931Z,24.04
2018-06-16T11:48:55.272Z,24.09
2018-06-16T11:53:58.600Z,24.51
2018-06-16T11:59:01.939Z,24.71
2018-06-16T12:04:05.328Z,25.40
2018-06-16T12:09:08.664Z,25.55
2018-06-16T12:14:11.992Z,25.57
2018-06-16T12:19:15.363Z,25.78
2018-06-16T12:24:18.693Z,26.40
2018-06-16T12:29:22.018Z,26.71
2018-06-16T12:34:25.346Z,26.09
2018-06-16T12:39:28.679Z,26.00
2018-06-16T12:44:32.120Z,25.98
2018-06-16T12:49:35.778Z,26.50
2018-06-16T12:54:39.116Z,26.54
2018-06-16T12:59:42.447Z,26.67
2018-06-16T13:04:45.776Z,27.17
2018-06-16T13:09:49.902Z,27.49
2018-06-16T13:14:53.231Z,27.60
2018-06-16T13:19:56.582Z,27.63
2018-06-16T13:24:59.944Z,27.84
2018-06-16T13:30:04.075Z,28.05
2018-06-16T13:35:07.405Z,28.60
2018-06-16T13:40:10.732Z,29.06
2018-06-16T13:45:14.067Z,28.54
2018-06-16T13:50:17.398Z,28.23
2018-06-16T13:55:20.730Z,27.73
2018-06-16T14:00:24.063Z,28.31
2018-06-16T14:05:27.404Z,29.48
2018-06-16T14:10:30.726Z,29.71
2018-06-16T14:15:34.068Z,30.80
2018-06-16T14:20:37.406Z,31.30
2018-06-16T14:25:41.507Z,31.40
2018-06-16T14:30:45.627Z,31.24
2018-06-16T14:35:48.958Z,31.86
2018-06-16T14:40:53.053Z,32.15
2018-06-16T14:45:56.565Z,32.80
2018-06-16T14:50:59.907Z,32.29
2018-06-16T14:56:03.328Z,32.99
2018-06-16T15:01:07.352Z,33.65
2018-06-16T15:06:10.696Z,32.85
2018-06-16T15:11:16.008Z,32.04
2018-06-16T15:16:19.504Z,32.16
2018-06-16T15:21:22.838Z,31.79
2018-06-16T15:26:26.167Z,31.58
2018-06-16T15:31:29.510Z,32.67
2018-06-16T15:41:44.488Z,32.63
2018-06-16T15:46:47.820Z,31.45
2018-06-16T15:51:52.315Z,30.33
2018-06-16T15:56:55.696Z,31.65
2018-06-16T16:01:59.451Z,32.48
2018-06-16T16:07:02.971Z,30.46
2018-06-16T16:12:06.294Z,30.64
2018-06-16T16:17:09.638Z,32.32
2018-06-16T16:22:13.759Z,33.70
2018-06-16T16:27:17.116Z,34.18
2018-06-16T16:32:20.478Z,33.91
2018-06-16T16:37:23.826Z,34.58
2018-06-16T16:42:27.165Z,33.81
2018-06-16T16:47:30.491Z,34.24
2018-06-16T16:52:33.834Z,34.53
2018-06-16T16:57:39.547Z,34.87
2018-06-16T17:02:43.651Z,34.50
2018-06-16T17:07:46.990Z,33.24
2018-06-16T17:12:51.099Z,32.21
2018-06-16T17:17:54.446Z,32.86
2018-06-16T17:22:58.537Z,31.25
2018-06-16T17:28:01.892Z,29.95
2018-06-16T17:33:05.235Z,29.35
2018-06-16T17:38:08.574Z,28.50
2018-06-16T17:43:11.899Z,29.02
2018-06-16T17:48:15.245Z,28.89
2018-06-16T17:53:18.569Z,27.81
2018-06-16T17:58:21.900Z,27.39
2018-06-16T18:03:25.226Z,27.23
2018-06-16T18:08:28.675Z,27.15
2018-06-16T18:13:31.997Z,27.38
2018-06-16T18:18:35.438Z,27.21
2018-06-16T18:23:38.770Z,27.39
2018-06-16T18:28:42.103Z,27.38
2018-06-16T18:33:45.434Z,27.46
2018-06-16T18:38:48.758Z,27.34
2018-06-16T18:43:52.093Z,27.16
2018-06-16T18:48:55.432Z,26.92
2018-06-16T18:53:58.764Z,27.06
2018-06-16T18:59:02.096Z,27.02
2018-06-16T19:04:05.440Z,26.91
2018-06-16T19:09:08.799Z,26.88
2018-06-16T19:14:12.130Z,27.17
2018-06-16T19:19:15.463Z,27.24
2018-06-16T19:24:19.572Z,27.24
2018-06-16T19:29:22.890Z,27.20
2018-06-16T19:34:26.256Z,27.15
2018-06-16T19:39:29.587Z,26.82
2018-06-16T19:44:32.935Z,26.63
2018-06-16T19:49:37.036Z,26.39
2018-06-16T19:54:40.380Z,26.16
2018-06-16T19:59:44.470Z,26.11
2018-06-16T20:04:47.790Z,26.14
2018-06-16T20:09:51.115Z,26.08
2018-06-16T20:14:54.447Z,26.06
2018-06-16T20:19:57.784Z,26.05
2018-06-16T20:25:01.889Z,25.78
2018-06-16T20:30:06.303Z,25.38
2018-06-16T20:35:10.708Z,25.25
2018-06-16T20:40:16.539Z,25.19
2018-06-16T20:45:20.853Z,25.16
2018-06-16T20:50:24.460Z,24.84
2018-06-16T20:55:28.063Z,24.73
2018-06-16T21:00:31.676Z,24.61
2018-06-16T21:05:35.354Z,24.59
2018-06-16T21:10:40.949Z,24.41
2018-06-16T21:15:45.147Z,24.21
2018-06-16T21:20:56.275Z,24.01
2018-06-16T21:25:59.858Z,23.96
2018-06-16T21:31:04.211Z,23.87
2018-06-16T21:36:07.569Z,23.79
2018-06-16T21:41:10.917Z,23.73
2018-06-16T21:46:14.264Z,23.60
2018-06-16T21:51:17.606Z,23.44
2018-06-16T21:56:20.935Z,23.23
2018-06-16T22:01:24.280Z,22.84
2018-06-16T22:06:28.370Z,22.61
2018-06-16T22:11:31.695Z,22.51
2018-06-16T22:16:35.032Z,22.47
2018-06-16T22:21:38.364Z,22.43
2018-06-16T22:26:41.713Z,22.39
